sensor_id;sensor_type;location;lat;lon;timestamp;P1;durP1;ratioP1;P2;durP2;ratioP2
37971;SDS011;23794;48.234;8.344;2024-01-10T00:00:05;27.00;;;15.27;;
37971;SDS011;23794;48.234;8.344;2024-01-10T00:02:33;26.92;;;14.27;;
37971;SDS011;23794;48.234;8.344;2024-01-10T00:04:59;26.92;;;14.70;;
37971;SDS011;23794;48.234;8.344;2024-01-10T00:07:26;28.02;;;15.07;;
37971;SDS011;23794;48.234;8.344;2024-01-10T00:09:53;27.92;;;13.90;;
37971;SDS011;23794;48.234;8.344;2024-01-10T00:12:20;28.80;;;14.30;;
37971;SDS011;23794;48.234;8.344;2024-01-10T00:14:50;28.17;;;15.55;;
37971;SDS011;23794;48.234;8.344;2024-01-10T00:17:16;25.75;;;14.82;;
37971;SDS011;23794;48.234;8.344;2024-01-10T00:19:43;27.48;;;15.35;;
37971;SDS011;23794;48.234;8.344;2024-01-10T00:22:10;25.98;;;14.98;;
37971;SDS011;23794;48.234;8.344;2024-01-10T00:24:37;27.05;;;16.27;;
37971;SDS011;23794;48.234;8.344;2024-01-10T00:27:03;26.27;;;14.48;;
37971;SDS011;23794;48.234;8.344;2024-01-10T00:29:31;34.88;;;16.35;;
37971;SDS011;23794;48.234;8.344;2024-01-10T00:31:59;25.67;;;13.77;;
37971;SDS011;23794;48.234;8.344;2024-01-10T00:34:26;23.42;;;13.20;;
37971;SDS011;23794;48.234;8.344;2024-01-10T00:36:53;27.60;;;13.80;;
37971;SDS011;23794;48.234;8.344;2024-01-10T00:39:19;27.95;;;15.27;;
37971;SDS011;23794;48.234;8.344;2024-01-10T00:41:46;24.15;;;13.65;;
37971;SDS011;23794;48.234;8.344;2024-01-10T00:44:13;29.60;;;14.45;;
37971;SDS011;23794;48.234;8.344;2024-01-10T00:46:40;26.92;;;14.80;;
37971;SDS011;23794;48.234;8.344;2024-01-10T00:49:07;25.73;;;13.95;;
37971;SDS011;23794;48.234;8.344;2024-01-10T00:51:34;26.67;;;14.05;;
37971;SDS011;23794;48.234;8.344;2024-01-10T00:54:01;26.08;;;13.55;;
37971;SDS011;23794;48.234;8.344;2024-01-10T00:56:28;25.63;;;14.35;;
37971;SDS011;23794;48.234;8.344;2024-01-10T00:58:55;28.90;;;14.82;;
37971;SDS011;23794;48.234;8.344;2024-01-10T01:01:24;26.85;;;13.82;;
37971;SDS011;23794;48.234;8.344;2024-01-10T01:03:51;25.83;;;13.93;;
37971;SDS011;23794;48.234;8.344;2024-01-10T01:06:18;28.10;;;14.68;;
37971;SDS011;23794;48.234;8.344;2024-01-10T01:08:45;29.13;;;15.50;;
37971;SDS011;23794;48.234;8.344;2024-01-10T01:11:12;27.90;;;16.02;;
37971;SDS011;23794;48.234;8.344;2024-01-10T01:13:41;25.30;;;14.07;;
37971;SDS011;23794;48.234;8.344;2024-01-10T01:16:07;32.10;;;16.25;;
37971;SDS011;23794;48.234;8.344;2024-01-10T01:18:34;28.90;;;16.15;;
37971;SDS011;23794;48.234;8.344;2024-01-10T01:21:01;28.08;;;15.27;;
37971;SDS011;23794;48.234;8.344;2024-01-10T01:23:29;30.48;;;14.95;;
37971;SDS011;23794;48.234;8.344;2024-01-10T01:26:07;27.20;;;14.40;;
37971;SDS011;23794;48.234;8.344;2024-01-10T01:28:34;28.50;;;14.93;;
37971;SDS011;23794;48.234;8.344;2024-01-10T01:31:01;27.73;;;14.50;;
37971;SDS011;23794;48.234;8.344;2024-01-10T01:33:28;24.75;;;14.60;;
37971;SDS011;23794;48.234;8.344;2024-01-10T01:35:55;25.95;;;13.82;;
37971;SDS011;23794;48.234;8.344;2024-01-10T01:38:22;30.92;;;15.60;;
37971;SDS011;23794;48.234;8.344;2024-01-10T01:40:49;28.63;;;14.52;;
37971;SDS011;23794;48.234;8.344;2024-01-10T01:43:22;31.10;;;14.77;;
37971;SDS011;23794;48.234;8.344;2024-01-10T01:45:55;30.10;;;16.35;;
37971;SDS011;23794;48.234;8.344;2024-01-10T01:48:23;28.15;;;14.68;;
37971;SDS011;23794;48.234;8.344;2024-01-10T01:50:57;28.95;;;15.05;;
37971;SDS011;23794;48.234;8.344;2024-01-10T01:53:30;27.05;;;14.15;;
37971;SDS011;23794;48.234;8.344;2024-01-10T01:55:58;32.83;;;16.92;;
37971;SDS011;23794;48.234;8.344;2024-01-10T01:58:29;27.52;;;15.55;;
37971;SDS011;23794;48.234;8.344;2024-01-10T02:00:56;31.00;;;16.75;;
37971;SDS011;23794;48.234;8.344;2024-01-10T02:03:23;34.47;;;16.90;;
37971;SDS011;23794;48.234;8.344;2024-01-10T02:05:51;22.45;;;13.27;;
37971;SDS011;23794;48.234;8.344;2024-01-10T02:08:18;26.15;;;14.90;;
37971;SDS011;23794;48.234;8.344;2024-01-10T02:10:45;32.53;;;16.13;;
37971;SDS011;23794;48.234;8.344;2024-01-10T02:13:12;26.05;;;14.20;;
37971;SDS011;23794;48.234;8.344;2024-01-10T02:15:39;28.05;;;14.77;;
37971;SDS011;23794;48.234;8.344;2024-01-10T02:18:06;25.00;;;14.75;;
37971;SDS011;23794;48.234;8.344;2024-01-10T02:20:33;29.52;;;15.35;;
37971;SDS011;23794;48.234;8.344;2024-01-10T02:23:00;30.10;;;15.65;;
37971;SDS011;23794;48.234;8.344;2024-01-10T02:25:26;28.23;;;16.30;;
37971;SDS011;23794;48.234;8.344;2024-01-10T02:27:54;29.50;;;15.65;;
37971;SDS011;23794;48.234;8.344;2024-01-10T02:30:20;33.08;;;16.35;;
37971;SDS011;23794;48.234;8.344;2024-01-10T02:32:47;31.05;;;17.05;;
37971;SDS011;23794;48.234;8.344;2024-01-10T02:35:14;29.40;;;15.35;;
37971;SDS011;23794;48.234;8.344;2024-01-10T02:37:41;31.42;;;16.52;;
37971;SDS011;23794;48.234;8.344;2024-01-10T02:40:08;31.35;;;17.25;;
37971;SDS011;23794;48.234;8.344;2024-01-10T02:42:35;31.90;;;15.80;;
37971;SDS011;23794;48.234;8.344;2024-01-10T02:45:01;29.67;;;14.90;;
37971;SDS011;23794;48.234;8.344;2024-01-10T02:47:28;29.33;;;14.70;;
37971;SDS011;23794;48.234;8.344;2024-01-10T02:49:55;31.52;;;17.08;;
37971;SDS011;23794;48.234;8.344;2024-01-10T02:52:22;28.83;;;15.13;;
37971;SDS011;23794;48.234;8.344;2024-01-10T02:54:49;32.50;;;16.02;;
37971;SDS011;23794;48.234;8.344;2024-01-10T02:57:16;26.90;;;14.65;;
37971;SDS011;23794;48.234;8.344;2024-01-10T02:59:42;32.30;;;14.93;;
37971;SDS011;23794;48.234;8.344;2024-01-10T03:02:09;27.85;;;15.63;;
37971;SDS011;23794;48.234;8.344;2024-01-10T03:07:13;26.60;;;15.25;;
37971;SDS011;23794;48.234;8.344;2024-01-10T03:09:40;29.55;;;16.92;;
37971;SDS011;23794;48.234;8.344;2024-01-10T03:12:07;29.05;;;15.25;;
37971;SDS011;23794;48.234;8.344;2024-01-10T03:14:34;28.67;;;16.05;;
37971;SDS011;23794;48.234;8.344;2024-01-10T03:17:00;27.70;;;15.38;;
37971;SDS011;23794;48.234;8.344;2024-01-10T03:19:27;30.15;;;16.00;;
37971;SDS011;23794;48.234;8.344;2024-01-10T03:21:54;28.88;;;16.23;;
37971;SDS011;23794;48.234;8.344;2024-01-10T03:24:20;36.00;;;17.70;;
37971;SDS011;23794;48.234;8.344;2024-01-10T03:26:50;29.27;;;16.10;;
37971;SDS011;23794;48.234;8.344;2024-01-10T03:29:16;25.17;;;14.30;;
37971;SDS011;23794;48.234;8.344;2024-01-10T03:31:43;32.10;;;15.90;;
37971;SDS011;23794;48.234;8.344;2024-01-10T03:34:10;29.40;;;14.77;;
37971;SDS011;23794;48.234;8.344;2024-01-10T03:36:36;27.80;;;14.30;;
37971;SDS011;23794;48.234;8.344;2024-01-10T03:39:03;28.35;;;15.75;;
37971;SDS011;23794;48.234;8.344;2024-01-10T03:41:30;30.48;;;16.45;;
37971;SDS011;23794;48.234;8.344;2024-01-10T03:43:57;33.88;;;18.90;;
37971;SDS011;23794;48.234;8.344;2024-01-10T03:46:23;33.42;;;16.67;;
37971;SDS011;23794;48.234;8.344;2024-01-10T03:48:50;32.88;;;16.83;;
37971;SDS011;23794;48.234;8.344;2024-01-10T03:51:19;27.77;;;15.85;;
37971;SDS011;23794;48.234;8.344;2024-01-10T03:53:45;30.67;;;16.50;;
37971;SDS011;23794;48.234;8.344;2024-01-10T03:56:12;35.05;;;18.60;;
37971;SDS011;23794;48.234;8.344;2024-01-10T03:58:39;39.17;;;20.23;;
37971;SDS011;23794;48.234;8.344;2024-01-10T04:01:06;36.05;;;17.70;;
37971;SDS011;23794;48.234;8.344;2024-01-10T04:03:33;31.48;;;18.08;;
37971;SDS011;23794;48.234;8.344;2024-01-10T04:06:04;29.85;;;16.90;;
37971;SDS011;23794;48.234;8.344;2024-01-10T04:08:30;32.58;;;17.05;;
37971;SDS011;23794;48.234;8.344;2024-01-10T04:10:57;28.63;;;16.90;;
37971;SDS011;23794;48.234;8.344;2024-01-10T04:13:24;29.95;;;16.33;;
37971;SDS011;23794;48.234;8.344;2024-01-10T04:15:51;30.33;;;15.27;;
37971;SDS011;23794;48.234;8.344;2024-01-10T04:18:18;30.08;;;16.58;;
37971;SDS011;23794;48.234;8.344;2024-01-10T04:20:46;26.83;;;14.63;;
37971;SDS011;23794;48.234;8.344;2024-01-10T04:23:16;33.88;;;18.20;;
37971;SDS011;23794;48.234;8.344;2024-01-10T04:25:43;34.95;;;19.25;;
37971;SDS011;23794;48.234;8.344;2024-01-10T04:28:10;32.35;;;16.80;;
37971;SDS011;23794;48.234;8.344;2024-01-10T04:30:37;34.67;;;17.38;;
37971;SDS011;23794;48.234;8.344;2024-01-10T04:33:05;32.53;;;17.92;;
37971;SDS011;23794;48.234;8.344;2024-01-10T04:35:31;32.22;;;17.63;;
37971;SDS011;23794;48.234;8.344;2024-01-10T04:37:58;27.30;;;16.42;;
37971;SDS011;23794;48.234;8.344;2024-01-10T04:40:25;32.55;;;16.13;;
37971;SDS011;23794;48.234;8.344;2024-01-10T04:42:51;30.88;;;16.73;;
37971;SDS011;23794;48.234;8.344;2024-01-10T04:45:18;30.13;;;16.60;;
37971;SDS011;23794;48.234;8.344;2024-01-10T04:47:45;30.05;;;16.23;;
37971;SDS011;23794;48.234;8.344;2024-01-10T04:50:12;32.10;;;17.55;;
37971;SDS011;23794;48.234;8.344;2024-01-10T04:52:40;29.95;;;17.00;;
37971;SDS011;23794;48.234;8.344;2024-01-10T04:55:07;31.55;;;16.67;;
37971;SDS011;23794;48.234;8.344;2024-01-10T04:57:34;30.38;;;16.48;;
37971;SDS011;23794;48.234;8.344;2024-01-10T05:00:02;31.10;;;15.65;;
37971;SDS011;23794;48.234;8.344;2024-01-10T05:02:30;34.70;;;17.25;;
37971;SDS011;23794;48.234;8.344;2024-01-10T05:04:57;28.60;;;15.77;;
37971;SDS011;23794;48.234;8.344;2024-01-10T05:07:25;34.28;;;17.05;;
37971;SDS011;23794;48.234;8.344;2024-01-10T05:09:51;34.47;;;17.58;;
37971;SDS011;23794;48.234;8.344;2024-01-10T05:12:18;31.90;;;16.20;;
37971;SDS011;23794;48.234;8.344;2024-01-10T05:14:44;31.67;;;16.83;;
37971;SDS011;23794;48.234;8.344;2024-01-10T05:17:11;33.25;;;17.42;;
37971;SDS011;23794;48.234;8.344;2024-01-10T05:19:38;30.52;;;17.55;;
37971;SDS011;23794;48.234;8.344;2024-01-10T05:22:05;30.88;;;17.15;;
37971;SDS011;23794;48.234;8.344;2024-01-10T05:24:32;33.97;;;17.60;;
37971;SDS011;23794;48.234;8.344;2024-01-10T05:26:59;36.38;;;19.13;;
37971;SDS011;23794;48.234;8.344;2024-01-10T05:29:25;32.08;;;18.52;;
37971;SDS011;23794;48.234;8.344;2024-01-10T05:31:53;35.47;;;18.52;;
37971;SDS011;23794;48.234;8.344;2024-01-10T05:34:20;39.33;;;18.92;;
37971;SDS011;23794;48.234;8.344;2024-01-10T05:36:47;35.25;;;18.38;;
37971;SDS011;23794;48.234;8.344;2024-01-10T05:39:14;36.05;;;18.13;;
37971;SDS011;23794;48.234;8.344;2024-01-10T05:41:42;31.75;;;17.10;;
37971;SDS011;23794;48.234;8.344;2024-01-10T05:44:12;36.17;;;17.65;;
37971;SDS011;23794;48.234;8.344;2024-01-10T05:46:39;34.58;;;18.23;;
37971;SDS011;23794;48.234;8.344;2024-01-10T05:49:06;38.25;;;18.50;;
37971;SDS011;23794;48.234;8.344;2024-01-10T05:51:34;31.23;;;17.27;;
37971;SDS011;23794;48.234;8.344;2024-01-10T05:54:00;33.65;;;18.77;;
37971;SDS011;23794;48.234;8.344;2024-01-10T05:56:27;34.80;;;19.38;;
37971;SDS011;23794;48.234;8.344;2024-01-10T05:58:54;36.85;;;18.15;;
37971;SDS011;23794;48.234;8.344;2024-01-10T06:01:21;34.38;;;16.85;;
37971;SDS011;23794;48.234;8.344;2024-01-10T06:03:48;32.95;;;17.75;;
37971;SDS011;23794;48.234;8.344;2024-01-10T06:06:14;37.00;;;18.88;;
37971;SDS011;23794;48.234;8.344;2024-01-10T06:08:41;37.78;;;17.35;;
37971;SDS011;23794;48.234;8.344;2024-01-10T06:11:08;37.67;;;18.05;;
37971;SDS011;23794;48.234;8.344;2024-01-10T06:13:36;37.63;;;19.95;;
37971;SDS011;23794;48.234;8.344;2024-01-10T06:16:18;36.70;;;19.50;;
37971;SDS011;23794;48.234;8.344;2024-01-10T06:18:45;35.63;;;17.88;;
37971;SDS011;23794;48.234;8.344;2024-01-10T06:21:12;38.28;;;20.27;;
37971;SDS011;23794;48.234;8.344;2024-01-10T06:23:38;37.58;;;19.20;;
37971;SDS011;23794;48.234;8.344;2024-01-10T06:26:05;35.85;;;19.13;;
37971;SDS011;23794;48.234;8.344;2024-01-10T06:28:32;40.20;;;20.20;;
37971;SDS011;23794;48.234;8.344;2024-01-10T06:30:59;36.50;;;20.55;;
37971;SDS011;23794;48.234;8.344;2024-01-10T06:33:26;38.70;;;20.48;;
37971;SDS011;23794;48.234;8.344;2024-01-10T06:35:53;35.90;;;19.08;;
37971;SDS011;23794;48.234;8.344;2024-01-10T06:38:20;34.00;;;19.08;;
37971;SDS011;23794;48.234;8.344;2024-01-10T06:40:49;35.90;;;19.17;;
37971;SDS011;23794;48.234;8.344;2024-01-10T06:43:17;37.20;;;18.38;;
37971;SDS011;23794;48.234;8.344;2024-01-10T06:45:43;30.40;;;17.45;;
37971;SDS011;23794;48.234;8.344;2024-01-10T06:48:11;36.53;;;19.60;;
37971;SDS011;23794;48.234;8.344;2024-01-10T06:50:37;33.40;;;17.70;;
37971;SDS011;23794;48.234;8.344;2024-01-10T06:53:04;37.42;;;20.05;;
37971;SDS011;23794;48.234;8.344;2024-01-10T06:55:31;36.90;;;20.20;;
37971;SDS011;23794;48.234;8.344;2024-01-10T06:57:58;36.15;;;17.60;;
37971;SDS011;23794;48.234;8.344;2024-01-10T07:00:24;38.78;;;19.52;;
37971;SDS011;23794;48.234;8.344;2024-01-10T07:02:51;39.10;;;19.30;;
37971;SDS011;23794;48.234;8.344;2024-01-10T07:05:18;37.92;;;19.73;;
37971;SDS011;23794;48.234;8.344;2024-01-10T07:07:46;35.55;;;19.17;;
37971;SDS011;23794;48.234;8.344;2024-01-10T07:10:12;40.17;;;20.63;;
37971;SDS011;23794;48.234;8.344;2024-01-10T07:12:39;34.20;;;18.15;;
37971;SDS011;23794;48.234;8.344;2024-01-10T07:15:07;38.70;;;20.27;;
37971;SDS011;23794;48.234;8.344;2024-01-10T07:17:33;37.85;;;20.45;;
37971;SDS011;23794;48.234;8.344;2024-01-10T07:20:00;38.63;;;19.60;;
37971;SDS011;23794;48.234;8.344;2024-01-10T07:22:27;36.78;;;20.13;;
37971;SDS011;23794;48.234;8.344;2024-01-10T07:24:54;37.20;;;19.35;;
37971;SDS011;23794;48.234;8.344;2024-01-10T07:27:20;39.13;;;19.25;;
37971;SDS011;23794;48.234;8.344;2024-01-10T07:29:47;38.67;;;19.40;;
37971;SDS011;23794;48.234;8.344;2024-01-10T07:32:14;38.72;;;20.05;;
37971;SDS011;23794;48.234;8.344;2024-01-10T07:34:40;40.67;;;20.20;;
37971;SDS011;23794;48.234;8.344;2024-01-10T07:37:07;48.63;;;25.85;;
37971;SDS011;23794;48.234;8.344;2024-01-10T07:39:35;43.92;;;21.55;;
37971;SDS011;23794;48.234;8.344;2024-01-10T07:42:02;42.38;;;23.42;;
37971;SDS011;23794;48.234;8.344;2024-01-10T07:44:29;36.97;;;21.33;;
37971;SDS011;23794;48.234;8.344;2024-01-10T07:46:56;40.85;;;22.50;;
37971;SDS011;23794;48.234;8.344;2024-01-10T07:49:22;39.30;;;20.95;;
37971;SDS011;23794;48.234;8.344;2024-01-10T07:51:50;41.75;;;21.85;;
37971;SDS011;23794;48.234;8.344;2024-01-10T07:54:17;40.95;;;21.90;;
37971;SDS011;23794;48.234;8.344;2024-01-10T07:56:44;36.30;;;19.63;;
37971;SDS011;23794;48.234;8.344;2024-01-10T07:59:10;37.42;;;20.73;;
37971;SDS011;23794;48.234;8.344;2024-01-10T08:01:43;39.50;;;20.48;;
37971;SDS011;23794;48.234;8.344;2024-01-10T08:04:12;37.83;;;20.92;;
37971;SDS011;23794;48.234;8.344;2024-01-10T08:06:41;36.55;;;20.77;;
37971;SDS011;23794;48.234;8.344;2024-01-10T08:09:08;36.13;;;19.80;;
37971;SDS011;23794;48.234;8.344;2024-01-10T08:11:37;43.45;;;21.60;;
37971;SDS011;23794;48.234;8.344;2024-01-10T08:14:04;39.85;;;22.00;;
37971;SDS011;23794;48.234;8.344;2024-01-10T08:16:31;37.50;;;20.63;;
37971;SDS011;23794;48.234;8.344;2024-01-10T08:18:58;42.15;;;21.38;;
37971;SDS011;23794;48.234;8.344;2024-01-10T08:21:25;39.45;;;20.42;;
37971;SDS011;23794;48.234;8.344;2024-01-10T08:23:52;43.38;;;22.48;;
37971;SDS011;23794;48.234;8.344;2024-01-10T08:26:19;38.95;;;20.95;;
37971;SDS011;23794;48.234;8.344;2024-01-10T08:28:45;48.92;;;24.48;;
37971;SDS011;23794;48.234;8.344;2024-01-10T08:31:16;61.92;;;28.50;;
37971;SDS011;23794;48.234;8.344;2024-01-10T08:33:43;59.75;;;27.05;;
37971;SDS011;23794;48.234;8.344;2024-01-10T08:36:10;65.47;;;30.45;;
37971;SDS011;23794;48.234;8.344;2024-01-10T08:38:39;58.50;;;29.02;;
37971;SDS011;23794;48.234;8.344;2024-01-10T08:41:07;54.58;;;26.85;;
37971;SDS011;23794;48.234;8.344;2024-01-10T08:43:35;57.00;;;28.85;;
37971;SDS011;23794;48.234;8.344;2024-01-10T08:46:01;51.67;;;26.17;;
37971;SDS011;23794;48.234;8.344;2024-01-10T08:48:28;56.13;;;29.30;;
37971;SDS011;23794;48.234;8.344;2024-01-10T08:50:54;49.30;;;25.85;;
37971;SDS011;23794;48.234;8.344;2024-01-10T08:53:22;58.55;;;29.27;;
37971;SDS011;23794;48.234;8.344;2024-01-10T08:55:49;51.83;;;26.88;;
37971;SDS011;23794;48.234;8.344;2024-01-10T08:58:16;50.60;;;26.30;;
37971;SDS011;23794;48.234;8.344;2024-01-10T09:00:42;57.03;;;28.73;;
37971;SDS011;23794;48.234;8.344;2024-01-10T09:03:09;54.90;;;25.35;;
37971;SDS011;23794;48.234;8.344;2024-01-10T09:05:36;47.55;;;25.42;;
37971;SDS011;23794;48.234;8.344;2024-01-10T09:08:02;40.08;;;22.02;;
37971;SDS011;23794;48.234;8.344;2024-01-10T09:10:29;46.80;;;23.33;;
37971;SDS011;23794;48.234;8.344;2024-01-10T09:12:58;41.38;;;22.85;;
37971;SDS011;23794;48.234;8.344;2024-01-10T09:15:24;45.13;;;23.05;;
37971;SDS011;23794;48.234;8.344;2024-01-10T09:17:51;46.78;;;24.38;;
37971;SDS011;23794;48.234;8.344;2024-01-10T09:20:18;46.75;;;24.70;;
37971;SDS011;23794;48.234;8.344;2024-01-10T09:22:47;42.75;;;21.35;;
37971;SDS011;23794;48.234;8.344;2024-01-10T09:25:15;39.97;;;21.65;;
37971;SDS011;23794;48.234;8.344;2024-01-10T09:27:42;37.00;;;20.70;;
37971;SDS011;23794;48.234;8.344;2024-01-10T09:30:10;36.97;;;19.77;;
37971;SDS011;23794;48.234;8.344;2024-01-10T09:32:37;35.85;;;19.33;;
37971;SDS011;23794;48.234;8.344;2024-01-10T09:35:04;40.65;;;20.23;;
37971;SDS011;23794;48.234;8.344;2024-01-10T09:37:31;34.45;;;19.33;;
37971;SDS011;23794;48.234;8.344;2024-01-10T09:39:58;35.85;;;20.17;;
37971;SDS011;23794;48.234;8.344;2024-01-10T09:42:25;36.30;;;21.05;;
37971;SDS011;23794;48.234;8.344;2024-01-10T09:44:52;40.60;;;21.33;;
37971;SDS011;23794;48.234;8.344;2024-01-10T09:47:19;36.33;;;20.55;;
37971;SDS011;23794;48.234;8.344;2024-01-10T09:49:46;35.88;;;19.48;;
37971;SDS011;23794;48.234;8.344;2024-01-10T09:52:16;36.97;;;19.13;;
37971;SDS011;23794;48.234;8.344;2024-01-10T09:54:55;41.20;;;21.50;;
37971;SDS011;23794;48.234;8.344;2024-01-10T09:57:26;37.78;;;20.00;;
37971;SDS011;23794;48.234;8.344;2024-01-10T09:59:53;37.10;;;18.98;;
37971;SDS011;23794;48.234;8.344;2024-01-10T10:02:23;33.53;;;18.55;;
37971;SDS011;23794;48.234;8.344;2024-01-10T10:04:54;33.35;;;18.83;;
37971;SDS011;23794;48.234;8.344;2024-01-10T10:07:28;35.63;;;18.02;;
37971;SDS011;23794;48.234;8.344;2024-01-10T10:09:55;33.65;;;19.05;;
37971;SDS011;23794;48.234;8.344;2024-01-10T10:12:40;33.70;;;19.48;;
37971;SDS011;23794;48.234;8.344;2024-01-10T10:15:11;34.58;;;19.02;;
37971;SDS011;23794;48.234;8.344;2024-01-10T10:17:40;32.88;;;18.33;;
37971;SDS011;23794;48.234;8.344;2024-01-10T10:20:13;34.13;;;17.92;;
37971;SDS011;23794;48.234;8.344;2024-01-10T10:25:35;26.70;;;16.77;;
37971;SDS011;23794;48.234;8.344;2024-01-10T10:28:07;31.30;;;16.75;;
37971;SDS011;23794;48.234;8.344;2024-01-10T10:30:44;33.13;;;19.52;;
37971;SDS011;23794;48.234;8.344;2024-01-10T10:33:12;34.25;;;20.58;;
37971;SDS011;23794;48.234;8.344;2024-01-10T10:35:39;56.42;;;28.90;;
37971;SDS011;23794;48.234;8.344;2024-01-10T10:38:11;53.35;;;28.02;;
37971;SDS011;23794;48.234;8.344;2024-01-10T10:40:38;49.05;;;26.27;;
37971;SDS011;23794;48.234;8.344;2024-01-10T10:43:05;44.67;;;23.92;;
37971;SDS011;23794;48.234;8.344;2024-01-10T10:45:39;50.38;;;27.13;;
37971;SDS011;23794;48.234;8.344;2024-01-10T10:48:13;43.90;;;23.38;;
37971;SDS011;23794;48.234;8.344;2024-01-10T10:50:54;42.15;;;21.67;;
37971;SDS011;23794;48.234;8.344;2024-01-10T10:53:27;54.47;;;28.00;;
37971;SDS011;23794;48.234;8.344;2024-01-10T10:55:55;40.97;;;23.17;;
37971;SDS011;23794;48.234;8.344;2024-01-10T10:58:23;39.35;;;22.15;;
37971;SDS011;23794;48.234;8.344;2024-01-10T11:00:51;35.22;;;20.50;;
37971;SDS011;23794;48.234;8.344;2024-01-10T11:03:18;31.95;;;19.25;;
37971;SDS011;23794;48.234;8.344;2024-01-10T11:05:47;34.13;;;19.40;;
37971;SDS011;23794;48.234;8.344;2024-01-10T11:08:15;27.70;;;16.77;;
37971;SDS011;23794;48.234;8.344;2024-01-10T11:10:44;30.02;;;16.67;;
37971;SDS011;23794;48.234;8.344;2024-01-10T11:19:49;39.60;;;22.85;;
37971;SDS011;23794;48.234;8.344;2024-01-10T11:25:35;39.80;;;21.70;;
37971;SDS011;23794;48.234;8.344;2024-01-10T11:28:04;45.20;;;21.73;;
37971;SDS011;23794;48.234;8.344;2024-01-10T11:30:52;38.15;;;19.55;;
37971;SDS011;23794;48.234;8.344;2024-01-10T11:33:23;35.60;;;18.98;;
37971;SDS011;23794;48.234;8.344;2024-01-10T11:38:43;31.63;;;17.88;;
37971;SDS011;23794;48.234;8.344;2024-01-10T11:41:11;30.27;;;17.70;;
37971;SDS011;23794;48.234;8.344;2024-01-10T11:43:39;28.48;;;17.13;;
37971;SDS011;23794;48.234;8.344;2024-01-10T11:46:06;31.00;;;18.83;;
37971;SDS011;23794;48.234;8.344;2024-01-10T11:48:33;31.55;;;18.25;;
37971;SDS011;23794;48.234;8.344;2024-01-10T11:51:00;30.33;;;16.20;;
37971;SDS011;23794;48.234;8.344;2024-01-10T11:53:39;27.75;;;16.13;;
37971;SDS011;23794;48.234;8.344;2024-01-10T11:56:13;50.20;;;26.67;;
37971;SDS011;23794;48.234;8.344;2024-01-10T11:59:01;39.75;;;20.48;;
37971;SDS011;23794;48.234;8.344;2024-01-10T12:01:30;36.20;;;20.75;;
37971;SDS011;23794;48.234;8.344;2024-01-10T12:03:57;29.45;;;17.88;;
37971;SDS011;23794;48.234;8.344;2024-01-10T12:06:40;23.40;;;14.55;;
37971;SDS011;23794;48.234;8.344;2024-01-10T12:09:07;27.23;;;15.98;;
37971;SDS011;23794;48.234;8.344;2024-01-10T12:11:39;21.80;;;13.60;;
37971;SDS011;23794;48.234;8.344;2024-01-10T12:14:06;24.48;;;15.30;;
37971;SDS011;23794;48.234;8.344;2024-01-10T12:16:34;24.55;;;14.55;;
37971;SDS011;23794;48.234;8.344;2024-01-10T12:19:01;22.52;;;13.45;;
37971;SDS011;23794;48.234;8.344;2024-01-10T12:21:28;23.00;;;13.80;;
37971;SDS011;23794;48.234;8.344;2024-01-10T12:23:56;30.23;;;18.30;;
37971;SDS011;23794;48.234;8.344;2024-01-10T12:26:23;36.55;;;21.00;;
37971;SDS011;23794;48.234;8.344;2024-01-10T12:28:56;34.88;;;19.13;;
37971;SDS011;23794;48.234;8.344;2024-01-10T12:31:26;29.70;;;17.13;;
37971;SDS011;23794;48.234;8.344;2024-01-10T12:33:56;33.45;;;17.98;;
37971;SDS011;23794;48.234;8.344;2024-01-10T12:36:23;32.03;;;18.13;;
37971;SDS011;23794;48.234;8.344;2024-01-10T12:38:51;32.90;;;18.48;;
37971;SDS011;23794;48.234;8.344;2024-01-10T12:41:18;26.85;;;15.32;;
37971;SDS011;23794;48.234;8.344;2024-01-10T12:43:49;26.15;;;16.30;;
37971;SDS011;23794;48.234;8.344;2024-01-10T12:46:18;32.63;;;15.73;;
37971;SDS011;23794;48.234;8.344;2024-01-10T12:48:45;22.83;;;14.38;;
37971;SDS011;23794;48.234;8.344;2024-01-10T12:51:12;22.10;;;14.32;;
37971;SDS011;23794;48.234;8.344;2024-01-10T12:53:40;23.42;;;13.93;;
37971;SDS011;23794;48.234;8.344;2024-01-10T12:56:08;21.15;;;14.13;;
37971;SDS011;23794;48.234;8.344;2024-01-10T12:58:41;23.70;;;13.73;;
37971;SDS011;23794;48.234;8.344;2024-01-10T13:01:08;22.88;;;13.38;;
37971;SDS011;23794;48.234;8.344;2024-01-10T13:03:36;21.83;;;14.45;;
37971;SDS011;23794;48.234;8.344;2024-01-10T13:06:02;23.10;;;13.57;;
37971;SDS011;23794;48.234;8.344;2024-01-10T13:08:29;22.55;;;14.43;;
37971;SDS011;23794;48.234;8.344;2024-01-10T13:10:56;23.65;;;13.60;;
37971;SDS011;23794;48.234;8.344;2024-01-10T13:13:22;20.85;;;13.43;;
37971;SDS011;23794;48.234;8.344;2024-01-10T13:15:50;22.35;;;13.75;;
37971;SDS011;23794;48.234;8.344;2024-01-10T13:18:17;22.98;;;14.07;;
37971;SDS011;23794;48.234;8.344;2024-01-10T13:20:45;19.30;;;13.38;;
37971;SDS011;23794;48.234;8.344;2024-01-10T13:23:11;24.15;;;15.73;;
37971;SDS011;23794;48.234;8.344;2024-01-10T13:25:38;21.02;;;13.35;;
37971;SDS011;23794;48.234;8.344;2024-01-10T13:28:04;23.75;;;13.70;;
37971;SDS011;23794;48.234;8.344;2024-01-10T13:30:31;18.83;;;12.60;;
37971;SDS011;23794;48.234;8.344;2024-01-10T13:32:58;23.13;;;13.73;;
37971;SDS011;23794;48.234;8.344;2024-01-10T13:35:24;21.33;;;12.52;;
37971;SDS011;23794;48.234;8.344;2024-01-10T13:37:52;21.83;;;12.50;;
37971;SDS011;23794;48.234;8.344;2024-01-10T13:40:19;21.00;;;13.73;;
37971;SDS011;23794;48.234;8.344;2024-01-10T13:42:50;17.48;;;11.43;;
37971;SDS011;23794;48.234;8.344;2024-01-10T13:45:17;20.30;;;12.65;;
37971;SDS011;23794;48.234;8.344;2024-01-10T13:47:44;19.33;;;11.90;;
37971;SDS011;23794;48.234;8.344;2024-01-10T13:50:11;19.50;;;12.23;;
37971;SDS011;23794;48.234;8.344;2024-01-10T13:52:37;19.98;;;12.13;;
37971;SDS011;23794;48.234;8.344;2024-01-10T13:55:04;18.98;;;12.45;;
37971;SDS011;23794;48.234;8.344;2024-01-10T13:57:31;25.10;;;14.93;;
37971;SDS011;23794;48.234;8.344;2024-01-10T14:00:02;67.78;;;35.78;;
37971;SDS011;23794;48.234;8.344;2024-01-10T14:02:37;47.20;;;27.85;;
37971;SDS011;23794;48.234;8.344;2024-01-10T14:05:04;49.80;;;29.02;;
37971;SDS011;23794;48.234;8.344;2024-01-10T14:07:32;47.03;;;26.38;;
37971;SDS011;23794;48.234;8.344;2024-01-10T14:09:59;36.70;;;23.42;;
37971;SDS011;23794;48.234;8.344;2024-01-10T14:12:27;30.48;;;17.90;;
37971;SDS011;23794;48.234;8.344;2024-01-10T14:14:55;32.47;;;18.67;;
37971;SDS011;23794;48.234;8.344;2024-01-10T14:17:24;24.45;;;14.70;;
37971;SDS011;23794;48.234;8.344;2024-01-10T14:19:51;25.27;;;14.85;;
37971;SDS011;23794;48.234;8.344;2024-01-10T14:22:18;22.83;;;13.85;;
37971;SDS011;23794;48.234;8.344;2024-01-10T14:24:56;22.25;;;14.32;;
37971;SDS011;23794;48.234;8.344;2024-01-10T14:27:25;24.38;;;15.40;;
37971;SDS011;23794;48.234;8.344;2024-01-10T14:29:52;27.55;;;15.30;;
37971;SDS011;23794;48.234;8.344;2024-01-10T14:32:18;25.02;;;14.32;;
37971;SDS011;23794;48.234;8.344;2024-01-10T14:34:45;23.63;;;13.30;;
37971;SDS011;23794;48.234;8.344;2024-01-10T14:37:13;31.00;;;15.63;;
37971;SDS011;23794;48.234;8.344;2024-01-10T14:39:40;19.67;;;12.52;;
37971;SDS011;23794;48.234;8.344;2024-01-10T14:42:07;22.33;;;14.15;;